Time;durP1;ratioP1;P1;durP2;ratioP2;P2;SDS_P1;SDS_P2;PMS_P1;PMS_P2;Temp;Humidity;BMP_temperature;BMP_pressure;BME280_temperature;BME280_humidity;BME280_pressure;Samples;Min_cycle;Max_cycle;Signal;HPM_P1;HPM_P2
2022/05/01 00:02:14;;;;;;;41.47;25.48;;;;;;;1.49;100.00;102495.00;4915706;28;20101;-72
2022/05/01 00:04:39;;;;;;;38.20;25.00;;;;;;;1.43;100.00;102501.59;4937403;28;20054;-70
2022/05/01 00:07:05;;;;;;;42.17;25.15;;;;;;;1.36;100.00;102492.38;4921358;28;20051;-70
2022/05/01 00:09:30;;;;;;;37.67;25.27;;;;;;;1.30;100.00;102484.03;4935637;28;20042;-70
2022/05/01 00:11:56;;;;;;;41.15;25.40;;;;;;;1.27;100.00;102490.44;4919791;28;20055;-70
2022/05/01 00:14:22;;;;;;;42.30;26.10;;;;;;;1.19;100.00;102488.34;4936825;28;20127;-70
2022/05/01 00:16:49;;;;;;;41.10;24.45;;;;;;;1.19;100.00;102487.47;4934269;28;20176;-70
2022/05/01 00:19:15;;;;;;;43.03;26.00;;;;;;;1.25;100.00;102483.53;4924789;28;20086;-70
2022/05/01 00:21:40;;;;;;;40.83;27.27;;;;;;;1.33;100.00;102483.81;4928977;28;20038;-70
2022/05/01 00:24:06;;;;;;;44.50;25.27;;;;;;;1.34;100.00;102480.22;4918130;28;20347;-70
2022/05/01 00:26:32;;;;;;;40.40;26.08;;;;;;;1.31;100.00;102480.44;4928595;28;20034;-70
2022/05/01 00:28:59;;;;;;;38.65;27.60;;;;;;;1.25;100.00;102480.88;4930124;28;20088;-70
2022/05/01 00:31:25;;;;;;;44.20;28.17;;;;;;;1.12;100.00;102476.47;4934380;28;20077;-70
2022/05/01 00:36:34;;;;;;;;;;;;;;;0.95;100.00;102479.50;4936925;28;20038;-70
2022/05/01 00:39:05;;;;;;;41.92;26.02;;;;;;;0.93;100.00;102481.38;4930545;28;19917;-71
2022/05/01 00:41:32;;;;;;;42.33;25.48;;;;;;;0.83;100.00;102480.34;4921895;28;20259;-70
2022/05/01 00:44:03;;;;;;;42.65;27.48;;;;;;;0.89;100.00;102488.72;4928554;28;22401;-71
2022/05/01 00:46:30;;;;;;;47.25;28.08;;;;;;;0.95;100.00;102484.78;4918857;28;20080;-71
2022/05/01 00:48:55;;;;;;;46.78;28.60;;;;;;;0.98;100.00;102481.06;4935729;28;23962;-71
2022/05/01 00:51:21;;;;;;;48.00;28.85;;;;;;;0.91;100.00;102473.56;4919956;28;20050;-71
2022/05/01 00:53:48;;;;;;;43.22;27.73;;;;;;;0.92;100.00;102475.25;4943533;28;20048;-71
2022/05/01 00:56:14;;;;;;;50.53;29.63;;;;;;;0.98;100.00;102476.59;4911987;28;20513;-71
2022/05/01 00:58:40;;;;;;;48.45;30.60;;;;;;;0.97;100.00;102469.59;4934008;28;20039;-70
2022/05/01 01:01:05;;;;;;;42.63;27.05;;;;;;;0.88;100.00;102478.22;4933002;28;20165;-71
2022/05/01 01:03:31;;;;;;;46.47;27.88;;;;;;;0.75;100.00;102472.94;4914113;28;20675;-70
2022/05/01 01:05:56;;;;;;;44.55;27.67;;;;;;;0.73;100.00;102468.69;4936501;28;20042;-70
2022/05/01 01:08:22;;;;;;;43.30;27.05;;;;;;;0.77;100.00;102470.16;4919982;28;20058;-70
2022/05/01 01:10:47;;;;;;;44.63;28.10;;;;;;;0.74;100.00;102463.28;4933955;28;20064;-70
2022/05/01 01:13:12;;;;;;;45.65;28.25;;;;;;;0.64;100.00;102471.06;4919765;28;20151;-70
2022/05/01 01:15:38;;;;;;;47.40;26.90;;;;;;;0.53;100.00;102473.63;4911969;28;21302;-70
2022/05/01 01:18:03;;;;;;;46.58;27.02;;;;;;;0.39;100.00;102471.94;4916995;28;20713;-70
2022/05/01 01:20:29;;;;;;;46.35;27.67;;;;;;;0.33;100.00;102471.50;4932996;28;20046;-70
2022/05/01 01:22:57;;;;;;;48.35;29.13;;;;;;;0.37;100.00;102473.81;4920527;28;20042;-71
2022/05/01 01:25:25;;;;;;;42.83;27.17;;;;;;;0.39;100.00;102473.72;4917353;28;20050;-71
2022/05/01 01:27:54;;;;;;;49.50;30.42;;;;;;;0.41;100.00;102470.00;4935661;28;20030;-72
2022/05/01 01:33:05;;;;;;;45.35;26.85;;;;;;;0.35;100.00;102475.75;4936318;28;20516;-71
2022/05/01 01:35:33;;;;;;;42.13;25.90;;;;;;;0.22;100.00;102475.72;4918978;28;20187;-71
2022/05/01 01:37:58;;;;;;;45.83;27.90;;;;;;;0.17;100.00;102467.22;4935487;28;20431;-71
2022/05/01 01:40:31;;;;;;;50.33;28.30;;;;;;;0.24;100.00;102473.81;4936285;28;20054;-71
2022/05/01 01:42:58;;;;;;;43.95;26.98;;;;;;;0.22;100.00;102472.25;4952262;28;20068;-72
2022/05/01 01:45:30;;;;;;;47.17;28.20;;;;;;;0.16;100.00;102470.84;4920657;28;20061;-72
2022/05/01 01:48:07;;;;;;;51.63;29.83;;;;;;;0.16;100.00;102470.84;4934939;28;20042;-72
2022/05/01 01:50:33;;;;;;;47.10;28.65;;;;;;;0.16;100.00;102467.34;4936042;28;20148;-72
2022/05/01 01:52:58;;;;;;;50.28;29.48;;;;;;;0.11;100.00;102478.28;4920928;28;20080;-72
2022/05/01 01:55:24;;;;;;;48.53;28.17;;;;;;;0.06;100.00;102479.53;4925135;28;20050;-71
2022/05/01 01:57:49;;;;;;;47.15;29.58;;;;;;;0.05;100.00;102473.38;4917743;28;20141;-72
2022/05/01 02:00:15;;;;;;;47.10;27.88;;;;;;;-0.02;100.00;102472.94;4935587;28;20034;-72
2022/05/01 02:02:40;;;;;;;44.75;28.25;;;;;;;-0.10;100.00;102474.44;4918905;28;20506;-72
2022/05/01 02:05:07;;;;;;;46.47;28.55;;;;;;;-0.11;100.00;102468.25;4929178;28;20034;-73
2022/05/01 02:07:33;;;;;;;46.58;28.17;;;;;;;-0.12;100.00;102476.31;4902905;28;20105;-72
2022/05/01 02:09:59;;;;;;;49.75;28.13;;;;;;;-0.17;100.00;102476.66;4925622;28;20038;-72
2022/05/01 02:12:25;;;;;;;43.90;28.98;;;;;;;-0.12;100.00;102468.38;4932499;28;23110;-72
2022/05/01 02:14:50;;;;;;;46.42;27.50;;;;;;;-0.15;100.00;102476.53;4910846;28;20174;-73
2022/05/01 02:17:15;;;;;;;44.15;27.42;;;;;;;-0.27;100.00;102467.63;4933715;28;20061;-73
2022/05/01 02:19:41;;;;;;;42.67;28.05;;;;;;;-0.38;100.00;102465.69;4916947;28;20058;-72
2022/05/01 02:22:07;;;;;;;46.88;25.90;;;;;;;-0.44;100.00;102471.38;4931968;28;20101;-72
2022/05/01 02:24:33;;;;;;;47.30;27.55;;;;;;;-0.46;100.00;102467.97;4909815;28;20168;-73
2022/05/01 02:27:00;;;;;;;45.00;26.85;;;;;;;-0.39;100.00;102468.41;4934098;28;20125;-73
2022/05/01 02:29:26;;;;;;;46.55;29.65;;;;;;;-0.45;100.00;102463.53;4924278;28;20046;-73
2022/05/01 02:31:53;;;;;;;42.05;26.38;;;;;;;-0.46;100.00;102472.41;4917969;28;20101;-72
2022/05/01 02:34:20;;;;;;;42.55;26.83;;;;;;;-0.55;100.00;102465.94;4934626;28;20062;-73
2022/05/01 02:36:46;;;;;;;43.53;26.30;;;;;;;-0.63;100.00;102470.88;4914960;28;20053;-73
2022/05/01 02:39:13;;;;;;;53.33;27.95;;;;;;;-0.63;100.00;102470.88;4935377;28;20034;-72
2022/05/01 02:41:39;;;;;;;50.13;28.15;;;;;;;-0.59;100.00;102464.47;4915709;28;24610;-72
2022/05/01 02:44:04;;;;;;;56.13;29.85;;;;;;;-0.52;100.00;102466.59;4943504;28;20058;-73
2022/05/01 02:46:32;;;;;;;47.13;28.75;;;;;;;-0.51;100.00;102464.78;4912052;28;20046;-72
2022/05/01 02:48:58;;;;;;;49.15;27.67;;;;;;;-0.57;100.00;102470.47;4935614;28;20647;-73
2022/05/01 02:51:24;;;;;;;45.28;27.63;;;;;;;-0.64;100.00;102477.13;4943552;28;20046;-72
2022/05/01 02:53:49;;;;;;;45.50;26.90;;;;;;;-0.72;100.00;102472.34;4916352;28;20050;-73
2022/05/01 02:56:15;;;;;;;49.35;28.25;;;;;;;-0.70;100.00;102469.56;4927273;28;20054;-73
2022/05/01 02:58:40;;;;;;;47.90;27.50;;;;;;;-0.67;100.00;102470.22;4926761;28;20054;-73
2022/05/01 03:01:06;;;;;;;50.88;30.17;;;;;;;-0.62;100.00;102467.28;4934148;28;20035;-73
2022/05/01 03:03:31;;;;;;;49.65;28.88;;;;;;;-0.58;100.00;102461.69;4918988;28;20069;-72
2022/05/01 03:05:58;;;;;;;57.25;31.13;;;;;;;-0.58;100.00;102461.69;4933392;28;20096;-72
2022/05/01 03:08:24;;;;;;;52.08;29.05;;;;;;;-0.62;100.00;102464.66;4930234;28;20034;-72
2022/05/01 03:10:50;;;;;;;50.65;30.73;;;;;;;-0.64;100.00;102463.88;4924101;28;20050;-72
2022/05/01 03:13:17;;;;;;;61.88;34.42;;;;;;;-0.68;100.00;102457.94;4928101;28;20038;-72
2022/05/01 03:15:42;;;;;;;57.28;30.23;;;;;;;-0.72;100.00;102457.31;4918765;28;20061;-72
2022/05/01 03:23:37;;;;;;;47.60;27.83;;;;;;;-0.91;100.00;102462.09;4930744;28;20032;-72
2022/05/01 03:26:02;;;;;;;60.45;29.85;;;;;;;-0.99;100.00;102448.50;4918946;28;20054;-72
2022/05/01 03:28:28;;;;;;;50.63;30.20;;;;;;;-1.00;100.00;102450.28;4931532;28;22718;-72
2022/05/01 03:30:53;;;;;;;48.92;28.08;;;;;;;-0.99;100.00;102449.34;4923383;28;20043;-71
2022/05/01 03:33:22;;;;;;;48.13;26.88;;;;;;;-1.01;100.00;102442.47;4936469;28;20039;-71
2022/05/01 03:35:49;;;;;;;51.45;30.05;;;;;;;-1.02;100.00;102448.69;4928512;28;20153;-72
2022/05/01 03:38:15;;;;;;;50.47;28.65;;;;;;;-1.01;100.00;102445.13;4901434;28;20390;-71
2022/05/01 03:40:42;;;;;;;50.55;28.33;;;;;;;-1.01;100.00;102442.47;4932761;28;20034;-71
2022/05/01 03:43:07;;;;;;;48.95;28.42;;;;;;;-0.97;100.00;102442.16;4918160;28;21167;-71
2022/05/01 03:45:33;;;;;;;50.67;28.95;;;;;;;-0.97;100.00;102436.03;4936433;28;20057;-71
2022/05/01 03:47:59;;;;;;;50.30;29.92;;;;;;;-0.97;100.00;102436.03;4920844;28;20055;-71
2022/05/01 03:50:24;;;;;;;57.47;30.85;;;;;;;-0.91;100.00;102440.06;4934244;28;20042;-71
2022/05/01 03:52:50;;;;;;;53.42;29.73;;;;;;;-0.87;100.00;102437.13;4914820;28;20991;-71
2022/05/01 03:55:16;;;;;;;54.15;30.02;;;;;;;-0.85;100.00;102429.94;4934327;28;20054;-71
2022/05/01 03:57:41;;;;;;;52.88;28.48;;;;;;;-0.85;100.00;102435.22;4932770;28;20045;-71
2022/05/01 04:00:10;;;;;;;51.08;29.67;;;;;;;-0.88;100.00;102432.78;4919779;28;20057;-71
2022/05/01 04:02:40;;;;;;;48.75;30.45;;;;;;;-0.90;100.00;102432.03;4932414;28;20593;-71
2022/05/01 04:05:07;;;;;;;46.88;29.05;;;;;;;-0.83;100.00;102437.78;4917474;28;20054;-71
2022/05/01 04:07:32;;;;;;;48.47;28.63;;;;;;;-0.75;100.00;102441.63;4944276;28;20154;-71
2022/05/01 04:09:57;;;;;;;54.45;31.10;;;;;;;-0.70;100.00;102443.09;4912065;28;20680;-71
2022/05/01 04:12:23;;;;;;;54.40;29.70;;;;;;;-0.72;100.00;102435.28;4932079;28;20508;-71
2022/05/01 04:14:48;;;;;;;51.70;28.77;;;;;;;-0.77;100.00;102440.88;4920892;28;20158;-71
2022/05/01 04:17:14;;;;;;;46.28;27.65;;;;;;;-0.84;100.00;102442.22;4948714;28;20030;-71
2022/05/01 04:19:39;;;;;;;55.72;30.63;;;;;;;-0.90;100.00;102441.78;4934319;28;20057;-71
2022/05/01 04:22:05;;;;;;;50.80;28.15;;;;;;;-0.90;100.00;102442.63;4918436;28;20062;-71
2022/05/01 04:24:30;;;;;;;45.40;27.23;;;;;;;-0.89;100.00;102449.59;4935135;28;20066;-71
2022/05/01 04:26:56;;;;;;;47.28;28.27;;;;;;;-0.81;100.00;102446.47;4900425;28;20731;-71
2022/05/01 04:29:36;;;;;;;53.05;27.98;;;;;;;-0.68;100.00;102443.88;4933698;28;20038;-71
2022/05/01 04:32:04;;;;;;;50.10;28.95;;;;;;;-0.59;100.00;102445.94;4918082;28;20054;-71
2022/05/01 04:34:30;;;;;;;49.10;28.23;;;;;;;-0.53;100.00;102442.84;4919402;28;20036;-71
2022/05/01 04:36:55;;;;;;;51.80;29.15;;;;;;;-0.50;100.00;102443.50;4943372;28;20046;-72
2022/05/01 04:39:21;;;;;;;52.13;29.20;;;;;;;-0.44;100.00;102439.59;4922707;28;20050;-72
2022/05/01 04:41:46;;;;;;;45.38;29.65;;;;;;;-0.34;100.00;102439.84;4937007;28;20074;-72
2022/05/01 04:44:12;;;;;;;60.00;33.13;;;;;;;-0.26;100.00;102438.38;4919276;28;20050;-72
2022/05/01 04:46:37;;;;;;;54.67;32.15;;;;;;;-0.17;100.00;102449.31;4934067;28;20049;-72
2022/05/01 04:49:03;;;;;;;51.13;29.20;;;;;;;-0.06;100.00;102449.44;4921372;28;20050;-72
2022/05/01 04:51:28;;;;;;;55.80;31.98;;;;;;;0.07;100.00;102442.34;4926716;28;20077;-72
2022/05/01 04:53:54;;;;;;;55.53;32.70;;;;;;;0.26;100.00;102447.22;4920359;28;20042;-72
2022/05/01 04:59:07;;;;;;;61.00;33.95;;;;;;;0.57;100.00;102448.56;4939106;28;20128;-70
2022/05/01 05:01:35;;;;;;;58.20;32.60;;;;;;;0.82;100.00;102452.13;4918016;28;20073;-71
2022/05/01 05:04:03;;;;;;;59.67;35.13;;;;;;;1.04;100.00;102446.97;4927637;28;20038;-70
2022/05/01 05:06:28;;;;;;;61.92;36.47;;;;;;;1.30;100.00;102452.16;4914683;28;20737;-70
2022/05/01 05:11:38;;;;;;;63.03;35.63;;;;;;;1.83;100.00;102450.84;4929675;28;20083;-70
2022/05/01 05:14:05;;;;;;;60.08;38.63;;;;;;;2.27;100.00;102456.34;4933944;28;20399;-70
2022/05/01 05:16:31;;;;;;;69.68;42.13;;;;;;;3.41;100.00;102461.44;4916314;28;20057;-70
2022/05/01 05:18:56;;;;;;;86.47;46.83;;;;;;;5.01;100.00;102458.28;4933233;28;20050;-70
2022/05/01 05:21:21;;;;;;;82.63;46.33;;;;;;;6.38;100.00;102459.13;4918283;28;20380;-71
2022/05/01 05:23:47;;;;;;;82.40;50.90;;;;;;;7.32;100.00;102465.13;4926751;28;20077;-70
2022/05/01 05:26:12;;;;;;;68.07;41.97;;;;;;;8.02;100.00;102459.06;4932485;28;20038;-71
2022/05/01 05:28:38;;;;;;;57.10;38.90;;;;;;;8.90;100.00;102466.97;4919252;28;20051;-71
2022/05/01 05:31:04;;;;;;;46.10;33.72;;;;;;;9.75;100.00;102471.16;4927479;28;20030;-71
2022/05/01 05:33:30;;;;;;;46.00;33.53;;;;;;;10.65;100.00;102467.56;4918130;28;20061;-71
2022/05/01 05:35:55;;;;;;;38.15;31.65;;;;;;;11.54;100.00;102474.31;4925969;28;20546;-71
2022/05/01 05:38:20;;;;;;;31.23;26.98;;;;;;;12.01;100.00;102473.31;4933710;28;20046;-71
2022/05/01 05:40:46;;;;;;;27.20;24.25;;;;;;;12.38;100.00;102466.19;4947836;28;20034;-71
2022/05/01 05:43:12;;;;;;;31.75;25.13;;;;;;;12.93;100.00;102475.69;4932119;28;20545;-72
2022/05/01 05:45:38;;;;;;;27.42;22.73;;;;;;;13.41;100.00;102472.53;4911393;28;20713;-72
2022/05/01 05:48:04;;;;;;;25.23;22.52;;;;;;;13.67;100.00;102477.38;4931517;28;20030;-72
2022/05/01 05:50:29;;;;;;;18.30;16.35;;;;;;;14.36;100.00;102477.56;4918727;28;20104;-72
2022/05/01 05:52:55;;;;;;;16.42;13.73;;;;;;;13.90;100.00;102480.75;4930358;28;20043;-71
2022/05/01 05:55:20;;;;;;;23.50;14.88;;;;;;;13.30;100.00;102487.41;4917834;28;20128;-72
2022/05/01 05:57:46;;;;;;;18.95;13.57;;;;;;;12.73;100.00;102485.41;4927011;28;20042;-72
2022/05/01 06:00:12;;;;;;;17.13;14.05;;;;;;;12.95;100.00;102487.19;4920256;28;20063;-72
2022/05/01 06:02:37;;;;;;;16.70;14.57;;;;;;;13.27;100.00;102485.94;4932904;28;20046;-71
2022/05/01 06:05:04;;;;;;;18.75;14.45;;;;;;;13.33;100.00;102492.44;4925834;28;20255;-71
2022/05/01 06:07:29;;;;;;;17.42;14.35;;;;;;;12.77;100.00;102486.72;4917468;28;20057;-70
2022/05/01 06:09:55;;;;;;;23.98;15.25;;;;;;;11.90;100.00;102492.66;4928810;28;20058;-70
2022/05/01 06:12:20;;;;;;;18.58;15.23;;;;;;;11.36;100.00;102492.66;4919447;28;20215;-70
2022/05/01 06:14:45;;;;;;;19.38;15.18;;;;;;;11.39;100.00;102495.00;4932651;28;20098;-70
2022/05/01 06:17:12;;;;;;;19.45;14.25;;;;;;;12.01;100.00;102494.09;4930935;28;20936;-70
2022/05/01 06:19:39;;;;;;;16.08;13.18;;;;;;;12.69;100.00;102484.94;4931623;28;20038;-70
2022/05/01 06:22:05;;;;;;;15.13;12.15;;;;;;;13.57;100.00;102488.53;4909643;28;20049;-70
2022/05/01 06:24:30;;;;;;;16.38;12.10;;;;;;;13.52;100.00;102493.69;4920309;28;20046;-70
2022/05/01 06:26:55;;;;;;;15.57;13.35;;;;;;;13.56;100.00;102493.13;4933030;28;20053;-70
2022/05/01 06:29:21;;;;;;;15.75;12.93;;;;;;;14.31;93.72;102498.97;4915994;28;20049;-71
2022/05/01 06:31:46;;;;;;;12.23;10.88;;;;;;;15.14;81.72;102496.34;4931755;28;20077;-71
2022/05/01 06:34:13;;;;;;;14.43;11.43;;;;;;;15.44;69.11;102495.00;4909908;28;20046;-71
2022/05/01 06:36:39;;;;;;;14.57;8.60;;;;;;;15.78;67.56;102490.47;4931188;28;20026;-71
2022/05/01 06:39:04;;;;;;;14.73;9.70;;;;;;;15.91;60.24;102495.94;4915924;28;20061;-71
2022/05/01 06:41:30;;;;;;;10.57;7.05;;;;;;;16.68;61.49;102493.56;4928817;28;20104;-71
2022/05/01 06:43:55;;;;;;;11.40;7.18;;;;;;;17.07;58.20;102487.16;4927796;28;20066;-71
2022/05/01 06:46:21;;;;;;;14.27;8.50;;;;;;;17.03;54.21;102493.28;4916819;28;20073;-71
2022/05/01 06:48:46;;;;;;;12.57;8.40;;;;;;;16.75;54.70;102483.53;4931734;28;20070;-71
2022/05/01 06:51:11;;;;;;;9.55;6.88;;;;;;;17.01;54.59;102492.63;4915579;28;20098;-71
2022/05/01 06:53:37;;;;;;;8.77;6.20;;;;;;;17.15;51.29;102488.81;4936145;28;20048;-71
2022/05/01 06:56:03;;;;;;;8.57;5.63;;;;;;;17.07;53.00;102499.94;4921319;28;20109;-71
2022/05/01 06:58:28;;;;;;;7.35;5.85;;;;;;;17.42;49.79;102494.94;4926232;28;21778;-71
2022/05/01 07:00:54;;;;;;;8.38;6.10;;;;;;;17.70;49.05;102491.84;4910670;28;20042;-71
2022/05/01 07:03:20;;;;;;;9.20;5.75;;;;;;;17.78;49.36;102483.41;4927577;28;20302;-72
2022/05/01 07:05:46;;;;;;;6.20;5.40;;;;;;;17.68;48.33;102484.94;4927243;28;20026;-73
2022/05/01 07:08:11;;;;;;;9.32;4.82;;;;;;;17.86;48.07;102472.22;4913007;28;20054;-73
2022/05/01 07:10:37;;;;;;;8.77;4.47;;;;;;;18.07;47.41;102492.81;4922338;28;20058;-73
2022/05/01 07:13:02;;;;;;;7.25;5.70;;;;;;;17.92;47.16;102483.31;4898712;28;20151;-73
2022/05/01 07:15:28;;;;;;;15.05;7.85;;;;;;;18.13;47.42;102481.03;4923900;28;20038;-73
2022/05/01 07:17:53;;;;;;;8.80;6.25;;;;;;;18.50;45.81;102480.28;4908810;28;20063;-73
2022/05/01 07:20:19;;;;;;;9.25;5.63;;;;;;;18.67;44.97;102486.78;4925096;28;20375;-70
2022/05/01 07:22:44;;;;;;;7.45;4.60;;;;;;;18.60;44.00;102480.56;4924312;28;20083;-71
2022/05/01 07:25:10;;;;;;;9.10;6.35;;;;;;;18.66;44.93;102479.66;4917740;28;20101;-71
2022/05/01 07:27:35;;;;;;;8.10;5.88;;;;;;;19.01;44.62;102487.25;4926986;28;20512;-71
2022/05/01 07:30:01;;;;;;;8.90;5.75;;;;;;;18.86;43.26;102484.94;4911822;28;20145;-71
2022/05/01 07:32:26;;;;;;;10.93;6.90;;;;;;;18.88;43.64;102487.41;4923933;28;20100;-73
2022/05/01 07:34:52;;;;;;;7.35;5.32;;;;;;;19.08;43.08;102488.00;4909253;28;20046;-73
2022/05/01 07:37:20;;;;;;;7.85;6.20;;;;;;;19.00;43.56;102482.88;4931690;28;20050;-72
2022/05/01 07:39:46;;;;;;;9.88;6.47;;;;;;;19.70;42.92;102491.38;4917233;28;20053;-73
2022/05/01 07:42:11;;;;;;;8.88;4.93;;;;;;;19.99;41.22;102495.09;4930525;28;20038;-73
2022/05/01 07:44:37;;;;;;;8.40;4.90;;;;;;;19.99;40.05;102495.09;4935427;28;20038;-73
2022/05/01 07:47:02;;;;;;;8.82;5.80;;;;;;;19.79;40.06;102486.38;4920286;28;20100;-73
2022/05/01 07:49:28;;;;;;;10.15;5.65;;;;;;;18.78;41.81;102493.44;4938456;28;20034;-73
2022/05/01 07:51:53;;;;;;;7.43;5.60;;;;;;;17.89;43.23;102490.88;4921051;28;20049;-73
2022/05/01 07:54:19;;;;;;;10.63;5.90;;;;;;;18.47;42.17;102491.63;4936759;28;20046;-73
2022/05/01 07:56:44;;;;;;;7.38;5.53;;;;;;;18.15;43.59;102494.47;4921280;28;20387;-73
2022/05/01 07:59:11;;;;;;;8.80;5.63;;;;;;;18.90;42.26;102497.06;4928518;28;20038;-71
2022/05/01 08:01:38;;;;;;;8.88;5.30;;;;;;;19.18;41.94;102488.31;4927349;28;20124;-72
2022/05/01 08:06:48;;;;;;;6.88;4.97;;;;;;;19.73;40.25;102484.63;4935158;28;20077;-71
2022/05/01 08:09:14;;;;;;;9.60;5.18;;;;;;;20.09;38.82;102491.78;4917673;28;20050;-71
2022/05/01 08:11:39;;;;;;;10.13;5.35;;;;;;;20.57;38.14;102490.75;4934437;28;20488;-72
2022/05/01 08:14:04;;;;;;;12.77;5.38;;;;;;;20.96;36.37;102480.09;4935387;28;20054;-72
2022/05/01 08:16:30;;;;;;;5.75;4.35;;;;;;;20.31;36.17;102480.25;4930844;28;20126;-71
2022/05/01 08:21:39;;;;;;;7.15;4.55;;;;;;;17.38;42.23;102477.38;4934011;28;20108;-71
2022/05/01 08:24:05;;;;;;;7.22;4.97;;;;;;;16.48;44.87;102476.44;4919859;28;20054;-72
2022/05/01 08:26:34;;;;;;;10.73;5.03;;;;;;;16.10;45.47;102472.50;4934594;28;20044;-71
2022/05/01 08:29:00;;;;;;;5.82;3.83;;;;;;;15.95;45.27;102471.88;4933829;28;20039;-72
2022/05/01 08:31:26;;;;;;;6.70;4.55;;;;;;;15.68;46.50;102471.03;4921683;28;20066;-72
2022/05/01 08:33:54;;;;;;;6.80;4.05;;;;;;;15.50;46.82;102477.03;4917000;28;20502;-72
2022/05/01 08:36:19;;;;;;;7.80;4.68;;;;;;;16.25;45.08;102461.44;4919227;28;20149;-72
2022/05/01 08:38:45;;;;;;;7.05;4.45;;;;;;;17.56;42.68;102473.91;4928332;28;20056;-72
2022/05/01 08:41:10;;;;;;;5.70;4.35;;;;;;;17.94;40.63;102464.88;4918668;28;21012;-72
2022/05/01 08:43:36;;;;;;;8.63;4.72;;;;;;;17.79;40.88;102473.34;4933396;28;20660;-71
2022/05/01 08:46:16;;;;;;;6.97;4.10;;;;;;;17.58;41.83;102461.72;4911201;28;20173;-72
2022/05/01 08:48:51;;;;;;;5.18;4.10;;;;;;;17.48;41.44;102458.66;4931659;28;20220;-72
2022/05/01 08:51:18;;;;;;;8.43;4.40;;;;;;;17.24;42.41;102464.91;4928403;28;20045;-72
2022/05/01 08:53:44;;;;;;;6.70;4.53;;;;;;;16.48;44.17;102469.13;4921936;28;20643;-72
2022/05/01 08:56:10;;;;;;;7.75;4.25;;;;;;;15.73;45.13;102463.94;4934811;28;20056;-72
2022/05/01 08:58:39;;;;;;;9.25;4.20;;;;;;;15.73;45.34;102465.81;4918157;28;20050;-72
2022/05/01 09:01:06;;;;;;;8.82;5.10;;;;;;;15.43;46.16;102463.44;4926854;28;20144;-72
2022/05/01 09:03:31;;;;;;;6.93;4.85;;;;;;;15.89;46.92;102459.97;4919651;28;20046;-72
2022/05/01 09:05:57;;;;;;;8.38;5.05;;;;;;;16.57;44.88;102464.28;4931790;28;20112;-72
2022/05/01 09:08:23;;;;;;;6.72;4.28;;;;;;;16.74;44.51;102461.91;4918664;28;20164;-71
2022/05/01 09:10:48;;;;;;;8.45;4.80;;;;;;;17.45;41.92;102453.66;4932801;28;20489;-72
2022/05/01 09:13:15;;;;;;;5.93;4.53;;;;;;;17.67;41.83;102448.69;4931069;28;20062;-71
2022/05/01 09:15:43;;;;;;;7.53;4.72;;;;;;;18.15;41.35;102450.81;4935092;28;20111;-71
2022/05/01 09:18:14;;;;;;;9.07;4.25;;;;;;;19.09;38.88;102454.16;4934458;28;20085;-71
2022/05/01 09:21:02;;;;;;;7.93;4.45;;;;;;;18.32;39.98;102457.38;4917444;28;20726;-72
2022/05/01 09:23:41;;;;;;;7.50;4.38;;;;;;;18.29;39.49;102457.81;4934495;28;20034;-73
2022/05/01 09:26:08;;;;;;;8.75;4.57;;;;;;;18.35;39.95;102443.25;4920882;28;24651;-71
2022/05/01 09:28:35;;;;;;;7.78;4.25;;;;;;;18.39;39.80;102453.72;4933991;28;21129;-71
2022/05/01 09:31:00;;;;;;;7.28;4.80;;;;;;;17.98;40.44;102450.56;4931054;28;20104;-71
2022/05/01 09:33:26;;;;;;;5.78;4.20;;;;;;;17.40;41.73;102454.28;4931655;28;20042;-71
2022/05/01 09:35:52;;;;;;;8.55;4.30;;;;;;;17.25;40.69;102442.88;4914952;28;20776;-72
2022/05/01 09:38:17;;;;;;;6.70;3.83;;;;;;;17.46;40.59;102454.47;4932222;28;20215;-72
2022/05/01 09:40:44;;;;;;;7.85;4.45;;;;;;;17.64;40.70;102449.13;4932551;28;20042;-72
2022/05/01 09:43:39;;;;;;;7.57;4.22;;;;;;;18.42;39.73;102453.28;4915720;28;20054;-73
2022/05/01 09:46:19;;;;;;;6.63;3.72;;;;;;;18.45;38.97;102450.91;4928659;28;20033;-72
2022/05/01 09:49:01;;;;;;;7.47;4.13;;;;;;;18.65;37.83;102445.25;4919537;28;20668;-73
2022/05/01 09:51:29;;;;;;;4.80;3.83;;;;;;;18.59;36.93;102440.69;4931672;28;21060;-72
2022/05/01 09:53:55;;;;;;;5.88;3.28;;;;;;;18.21;37.67;102438.16;4918535;28;20597;-72
2022/05/01 09:56:21;;;;;;;7.28;3.88;;;;;;;17.76;39.58;102441.06;4931714;28;20042;-73
2022/05/01 09:58:56;;;;;;;7.75;3.65;;;;;;;17.35;39.49;102442.41;4931398;28;20692;-71
2022/05/01 10:01:22;;;;;;;6.88;4.32;;;;;;;17.23;39.99;102449.59;4929799;28;20034;-72
2022/05/01 10:03:51;;;;;;;5.45;4.28;;;;;;;16.88;40.33;102439.94;4917669;28;20541;-73
2022/05/01 10:06:17;;;;;;;6.53;4.43;;;;;;;16.62;41.46;102440.00;4927730;28;20042;-73
2022/05/01 10:08:44;;;;;;;8.27;4.85;;;;;;;16.51;42.37;102432.50;4917704;28;20095;-71
2022/05/01 10:11:16;;;;;;;6.00;3.92;;;;;;;16.58;42.07;102433.31;4931835;28;22596;-71
2022/05/01 10:13:43;;;;;;;6.35;4.20;;;;;;;16.87;41.48;102432.81;4930763;28;20117;-71
2022/05/01 10:16:11;;;;;;;6.20;4.18;;;;;;;17.24;41.30;102430.31;4899803;28;20148;-71
2022/05/01 10:18:37;;;;;;;8.30;4.10;;;;;;;17.55;40.11;102423.19;4930593;28;20034;-69
2022/05/01 10:21:04;;;;;;;5.32;4.15;;;;;;;17.57;39.86;102437.44;4916603;28;20107;-73
2022/05/01 10:23:30;;;;;;;6.05;3.60;;;;;;;17.80;39.66;102426.81;4932603;28;20212;-71
2022/05/01 10:26:06;;;;;;;6.03;3.58;;;;;;;18.39;38.36;102429.16;4917790;28;20486;-70
2022/05/01 10:28:47;;;;;;;6.45;3.38;;;;;;;18.49;37.97;102432.19;4931758;28;20037;-71
2022/05/01 10:34:16;;;;;;;5.60;3.38;;;;;;;18.40;37.95;102431.69;4930758;28;20050;-71
2022/05/01 10:37:00;;;;;;;4.88;3.45;;;;;;;18.67;36.92;102423.16;4914193;28;20154;-71
2022/05/01 10:39:33;;;;;;;8.90;4.18;;;;;;;18.81;36.51;102428.28;4930743;28;20077;-71
2022/05/01 10:41:59;;;;;;;6.45;3.05;;;;;;;18.90;37.14;102419.78;4912656;28;20100;-71
2022/05/01 10:44:34;;;;;;;7.47;2.92;;;;;;;18.79;37.68;102424.94;4933764;28;20097;-72
2022/05/01 10:47:18;;;;;;;4.68;3.40;;;;;;;18.77;37.37;102416.13;4946016;28;20149;-71
2022/05/01 10:49:45;;;;;;;7.53;3.85;;;;;;;19.04;36.13;102421.25;4923519;28;20057;-72
2022/05/01 10:52:21;;;;;;;5.07;3.15;;;;;;;19.23;37.05;102420.13;4947977;28;20034;-72
2022/05/01 10:55:04;;;;;;;8.80;3.58;;;;;;;19.15;36.15;102414.19;4914063;28;21040;-72
2022/05/01 10:57:30;;;;;;;6.03;3.20;;;;;;;19.26;36.21;102416.94;4930109;28;20043;-72
2022/05/01 11:00:10;;;;;;;10.43;4.47;;;;;;;19.15;35.96;102408.72;4931745;28;20065;-72
2022/05/01 11:02:45;;;;;;;7.20;4.50;;;;;;;19.48;36.37;102409.06;4931149;28;20046;-72
2022/05/01 11:05:31;;;;;;;6.70;3.33;;;;;;;19.91;34.42;102398.91;4915054;28;20054;-72
2022/05/01 11:07:57;;;;;;;7.07;3.78;;;;;;;20.35;34.11;102399.34;4929759;28;20034;-72
2022/05/01 11:10:26;;;;;;;6.07;4.53;;;;;;;20.16;33.77;102391.28;4918070;28;20160;-72
2022/05/01 11:12:52;;;;;;;7.72;4.53;;;;;;;20.41;32.65;102392.91;4931663;28;20030;-72
2022/05/01 11:15:25;;;;;;;8.23;4.00;;;;;;;20.56;32.39;102397.91;4925178;28;20260;-72
2022/05/01 11:17:52;;;;;;;9.40;4.53;;;;;;;20.81;32.99;102392.94;4930986;28;20038;-72
2022/05/01 11:20:21;;;;;;;10.05;4.85;;;;;;;21.07;33.77;102391.53;4929472;28;20036;-72
2022/05/01 11:22:47;;;;;;;7.63;3.80;;;;;;;20.58;32.99;102385.66;4923559;28;20058;-72
2022/05/01 11:25:32;;;;;;;6.32;3.95;;;;;;;20.42;33.84;102380.88;4931252;28;20066;-72
2022/05/01 11:27:57;;;;;;;5.18;3.17;;;;;;;20.62;33.37;102395.03;4916431;28;20065;-72
2022/05/01 11:30:26;;;;;;;6.57;3.28;;;;;;;20.99;32.84;102391.94;4940908;28;20106;-72
2022/05/01 11:33:11;;;;;;;6.25;3.15;;;;;;;21.29;31.39;102388.91;4918200;28;20139;-72
2022/05/01 11:36:00;;;;;;;6.90;3.67;;;;;;;20.35;33.06;102386.50;4933244;28;20035;-73
2022/05/01 11:38:38;;;;;;;5.43;3.53;;;;;;;19.37;34.23;102389.88;4918193;28;20057;-72
2022/05/01 11:41:04;;;;;;;10.73;5.05;;;;;;;18.70;35.94;102382.59;4937266;28;20049;-72